Schofield, Hawaii
Current Conditions -  °F | °C
As of 3:58 PM on Friday 21 Nov 2014 (Local Time) from PHHI Reporting Station
Clear Clear  
Wind Chill: 80°   Ceiling: Unl
Heat Index: 83°   Visibility: 10mi
Dew Point: 67°   Wind: 12mph
Humidity: 65%   Direction: 60°ENE
Pressure: 29.99"   Gusts: NA
Location:  21.4794°N, 158.1°W
Report Text: PHHI 220158Z AUTO 06010KT 10SM CLR 27/20 A2999 RMK AO2 SLP145 T02690197
Loading
Personal Weather Stations






























Interactive Weather Map New forecast layout! Learn more

10-Day Weather Forecast

Advertisements
Track Severe Weather on mobile